sensor_id;sensor_type;location;lat;lon;timestamp;P1;durP1;ratioP1;P2;durP2;ratioP2
8650;SDS011;4363;52.346;14.516;2022-08-19T00:00:04;368.27;;;206.40;;
8650;SDS011;4363;52.346;14.516;2022-08-19T00:02:30;367.27;;;208.35;;
8650;SDS011;4363;52.346;14.516;2022-08-19T00:04:56;381.38;;;223.38;;
8650;SDS011;4363;52.346;14.516;2022-08-19T00:07:22;357.90;;;209.65;;
8650;SDS011;4363;52.346;14.516;2022-08-19T00:09:48;364.67;;;211.35;;
8650;SDS011;4363;52.346;14.516;2022-08-19T00:12:13;363.85;;;211.73;;
8650;SDS011;4363;52.346;14.516;2022-08-19T00:14:40;387.83;;;225.57;;
8650;SDS011;4363;52.346;14.516;2022-08-19T00:17:06;372.42;;;226.77;;
8650;SDS011;4363;52.346;14.516;2022-08-19T00:19:33;375.45;;;213.25;;
8650;SDS011;4363;52.346;14.516;2022-08-19T00:21:59;364.80;;;208.30;;
8650;SDS011;4363;52.346;14.516;2022-08-19T00:24:27;377.85;;;214.93;;
8650;SDS011;4363;52.346;14.516;2022-08-19T00:26:53;382.83;;;217.52;;
8650;SDS011;4363;52.346;14.516;2022-08-19T00:29:21;372.20;;;214.77;;
8650;SDS011;4363;52.346;14.516;2022-08-19T00:31:48;368.52;;;217.98;;
8650;SDS011;4363;52.346;14.516;2022-08-19T00:34:15;382.67;;;218.40;;
8650;SDS011;4363;52.346;14.516;2022-08-19T00:36:41;387.10;;;218.57;;
8650;SDS011;4363;52.346;14.516;2022-08-19T00:39:08;393.73;;;222.63;;
8650;SDS011;4363;52.346;14.516;2022-08-19T00:41:34;353.38;;;210.77;;
8650;SDS011;4363;52.346;14.516;2022-08-19T00:46:26;381.00;;;218.25;;
8650;SDS011;4363;52.346;14.516;2022-08-19T00:48:52;379.48;;;219.63;;
8650;SDS011;4363;52.346;14.516;2022-08-19T00:51:18;365.45;;;208.88;;
8650;SDS011;4363;52.346;14.516;2022-08-19T00:53:44;370.85;;;221.63;;
8650;SDS011;4363;52.346;14.516;2022-08-19T00:56:10;380.25;;;230.73;;
8650;SDS011;4363;52.346;14.516;2022-08-19T00:58:36;365.25;;;212.50;;
8650;SDS011;4363;52.346;14.516;2022-08-19T01:01:03;372.08;;;220.93;;
8650;SDS011;4363;52.346;14.516;2022-08-19T01:03:29;382.67;;;217.68;;
8650;SDS011;4363;52.346;14.516;2022-08-19T01:05:55;378.38;;;213.23;;
8650;SDS011;4363;52.346;14.516;2022-08-19T01:08:21;377.55;;;213.00;;
8650;SDS011;4363;52.346;14.516;2022-08-19T01:10:48;383.20;;;220.35;;
8650;SDS011;4363;52.346;14.516;2022-08-19T01:13:16;376.15;;;216.20;;
8650;SDS011;4363;52.346;14.516;2022-08-19T01:15:46;366.50;;;209.68;;
8650;SDS011;4363;52.346;14.516;2022-08-19T01:18:15;382.67;;;216.93;;
8650;SDS011;4363;52.346;14.516;2022-08-19T01:20:42;376.00;;;217.90;;
8650;SDS011;4363;52.346;14.516;2022-08-19T01:23:09;356.75;;;205.80;;
8650;SDS011;4363;52.346;14.516;2022-08-19T01:25:38;360.45;;;213.02;;
8650;SDS011;4363;52.346;14.516;2022-08-19T01:28:05;379.20;;;221.93;;
8650;SDS011;4363;52.346;14.516;2022-08-19T01:30:33;370.35;;;217.23;;
8650;SDS011;4363;52.346;14.516;2022-08-19T01:32:59;371.45;;;229.50;;
8650;SDS011;4363;52.346;14.516;2022-08-19T01:35:26;383.10;;;226.30;;
8650;SDS011;4363;52.346;14.516;2022-08-19T01:37:54;393.48;;;230.65;;
8650;SDS011;4363;52.346;14.516;2022-08-19T01:40:21;380.05;;;223.02;;
8650;SDS011;4363;52.346;14.516;2022-08-19T01:42:48;376.08;;;214.55;;
8650;SDS011;4363;52.346;14.516;2022-08-19T01:45:14;394.08;;;226.10;;
8650;SDS011;4363;52.346;14.516;2022-08-19T01:47:40;374.95;;;215.32;;
8650;SDS011;4363;52.346;14.516;2022-08-19T01:50:07;378.67;;;220.15;;
8650;SDS011;4363;52.346;14.516;2022-08-19T01:52:40;372.75;;;214.82;;
8650;SDS011;4363;52.346;14.516;2022-08-19T01:55:07;387.30;;;219.55;;
8650;SDS011;4363;52.346;14.516;2022-08-19T01:57:34;343.27;;;202.75;;
8650;SDS011;4363;52.346;14.516;2022-08-19T02:00:00;382.70;;;213.55;;
8650;SDS011;4363;52.346;14.516;2022-08-19T02:02:28;361.75;;;209.43;;
8650;SDS011;4363;52.346;14.516;2022-08-19T02:04:54;374.13;;;213.82;;
8650;SDS011;4363;52.346;14.516;2022-08-19T02:07:20;377.20;;;216.15;;
8650;SDS011;4363;52.346;14.516;2022-08-19T02:09:46;351.98;;;205.68;;
8650;SDS011;4363;52.346;14.516;2022-08-19T02:12:13;386.85;;;224.40;;
8650;SDS011;4363;52.346;14.516;2022-08-19T02:14:39;376.73;;;220.95;;
8650;SDS011;4363;52.346;14.516;2022-08-19T02:17:05;371.95;;;219.38;;
8650;SDS011;4363;52.346;14.516;2022-08-19T02:19:31;384.20;;;228.10;;
8650;SDS011;4363;52.346;14.516;2022-08-19T02:21:58;377.15;;;223.57;;
8650;SDS011;4363;52.346;14.516;2022-08-19T02:24:24;383.45;;;238.07;;
8650;SDS011;4363;52.346;14.516;2022-08-19T02:26:50;370.58;;;231.85;;
8650;SDS011;4363;52.346;14.516;2022-08-19T02:29:16;372.63;;;235.43;;
8650;SDS011;4363;52.346;14.516;2022-08-19T02:31:42;384.80;;;248.05;;
8650;SDS011;4363;52.346;14.516;2022-08-19T02:34:08;372.67;;;236.27;;
8650;SDS011;4363;52.346;14.516;2022-08-19T02:36:34;376.30;;;230.70;;
8650;SDS011;4363;52.346;14.516;2022-08-19T02:39:00;390.17;;;236.98;;
8650;SDS011;4363;52.346;14.516;2022-08-19T02:41:27;395.63;;;237.73;;
8650;SDS011;4363;52.346;14.516;2022-08-19T02:43:57;379.90;;;233.20;;
8650;SDS011;4363;52.346;14.516;2022-08-19T02:46:27;396.20;;;240.57;;
8650;SDS011;4363;52.346;14.516;2022-08-19T02:48:54;367.13;;;235.45;;
8650;SDS011;4363;52.346;14.516;2022-08-19T02:51:22;383.85;;;233.68;;
8650;SDS011;4363;52.346;14.516;2022-08-19T02:53:48;395.70;;;246.68;;
8650;SDS011;4363;52.346;14.516;2022-08-19T02:56:14;400.25;;;248.18;;
8650;SDS011;4363;52.346;14.516;2022-08-19T02:58:40;386.88;;;238.38;;
8650;SDS011;4363;52.346;14.516;2022-08-19T03:01:07;374.83;;;240.30;;
8650;SDS011;4363;52.346;14.516;2022-08-19T03:03:33;388.23;;;243.70;;
8650;SDS011;4363;52.346;14.516;2022-08-19T03:06:06;399.30;;;246.23;;
8650;SDS011;4363;52.346;14.516;2022-08-19T03:08:32;376.95;;;234.35;;
8650;SDS011;4363;52.346;14.516;2022-08-19T03:10:58;379.17;;;235.50;;
8650;SDS011;4363;52.346;14.516;2022-08-19T03:13:24;386.15;;;240.32;;
8650;SDS011;4363;52.346;14.516;2022-08-19T03:15:50;398.67;;;246.07;;
8650;SDS011;4363;52.346;14.516;2022-08-19T03:18:16;391.80;;;249.55;;
8650;SDS011;4363;52.346;14.516;2022-08-19T03:20:43;394.27;;;249.20;;
8650;SDS011;4363;52.346;14.516;2022-08-19T03:23:10;374.67;;;234.02;;
8650;SDS011;4363;52.346;14.516;2022-08-19T03:25:38;394.13;;;245.30;;
8650;SDS011;4363;52.346;14.516;2022-08-19T03:28:05;367.85;;;234.35;;
8650;SDS011;4363;52.346;14.516;2022-08-19T03:30:32;393.08;;;247.02;;
8650;SDS011;4363;52.346;14.516;2022-08-19T03:32:58;393.58;;;248.55;;
8650;SDS011;4363;52.346;14.516;2022-08-19T03:35:24;366.38;;;228.82;;
8650;SDS011;4363;52.346;14.516;2022-08-19T03:37:49;396.58;;;244.48;;
8650;SDS011;4363;52.346;14.516;2022-08-19T03:40:15;381.95;;;236.05;;
8650;SDS011;4363;52.346;14.516;2022-08-19T03:42:43;391.75;;;236.30;;
8650;SDS011;4363;52.346;14.516;2022-08-19T03:45:10;387.17;;;240.00;;
8650;SDS011;4363;52.346;14.516;2022-08-19T03:47:36;396.40;;;247.23;;
8650;SDS011;4363;52.346;14.516;2022-08-19T03:50:03;385.02;;;238.88;;
8650;SDS011;4363;52.346;14.516;2022-08-19T03:52:29;380.83;;;236.52;;
8650;SDS011;4363;52.346;14.516;2022-08-19T03:54:55;389.10;;;243.15;;
8650;SDS011;4363;52.346;14.516;2022-08-19T03:57:21;371.75;;;231.75;;
8650;SDS011;4363;52.346;14.516;2022-08-19T03:59:47;383.73;;;240.98;;
8650;SDS011;4363;52.346;14.516;2022-08-19T04:02:13;384.08;;;239.73;;
8650;SDS011;4363;52.346;14.516;2022-08-19T04:04:40;384.45;;;228.23;;
8650;SDS011;4363;52.346;14.516;2022-08-19T04:07:08;375.75;;;218.05;;
8650;SDS011;4363;52.346;14.516;2022-08-19T04:09:34;389.77;;;232.88;;
8650;SDS011;4363;52.346;14.516;2022-08-19T04:12:04;377.00;;;220.07;;
8650;SDS011;4363;52.346;14.516;2022-08-19T04:14:30;377.05;;;223.30;;
8650;SDS011;4363;52.346;14.516;2022-08-19T04:17:00;351.05;;;206.75;;
8650;SDS011;4363;52.346;14.516;2022-08-19T04:19:26;341.38;;;205.13;;
8650;SDS011;4363;52.346;14.516;2022-08-19T04:21:54;349.20;;;201.90;;
8650;SDS011;4363;52.346;14.516;2022-08-19T04:24:21;370.63;;;223.48;;
8650;SDS011;4363;52.346;14.516;2022-08-19T04:26:47;373.85;;;222.00;;
8650;SDS011;4363;52.346;14.516;2022-08-19T04:29:15;356.05;;;217.05;;
8650;SDS011;4363;52.346;14.516;2022-08-19T04:31:42;372.88;;;224.35;;
8650;SDS011;4363;52.346;14.516;2022-08-19T04:34:09;355.90;;;222.05;;
8650;SDS011;4363;52.346;14.516;2022-08-19T04:36:36;379.45;;;235.68;;
8650;SDS011;4363;52.346;14.516;2022-08-19T04:39:06;381.13;;;236.85;;
8650;SDS011;4363;52.346;14.516;2022-08-19T04:41:34;378.70;;;238.93;;
8650;SDS011;4363;52.346;14.516;2022-08-19T04:44:19;370.90;;;226.50;;
8650;SDS011;4363;52.346;14.516;2022-08-19T04:46:46;355.73;;;219.55;;
8650;SDS011;4363;52.346;14.516;2022-08-19T04:49:13;367.48;;;217.43;;
8650;SDS011;4363;52.346;14.516;2022-08-19T04:51:40;387.33;;;224.02;;
8650;SDS011;4363;52.346;14.516;2022-08-19T04:54:07;380.77;;;227.95;;
8650;SDS011;4363;52.346;14.516;2022-08-19T04:56:33;379.15;;;232.77;;
8650;SDS011;4363;52.346;14.516;2022-08-19T04:58:59;369.10;;;226.95;;
8650;SDS011;4363;52.346;14.516;2022-08-19T05:01:30;378.80;;;232.82;;
8650;SDS011;4363;52.346;14.516;2022-08-19T05:03:57;381.40;;;226.38;;
8650;SDS011;4363;52.346;14.516;2022-08-19T05:06:23;377.08;;;225.27;;
8650;SDS011;4363;52.346;14.516;2022-08-19T05:08:50;389.40;;;230.35;;
8650;SDS011;4363;52.346;14.516;2022-08-19T05:11:17;376.75;;;219.45;;
8650;SDS011;4363;52.346;14.516;2022-08-19T05:13:44;380.98;;;222.23;;
8650;SDS011;4363;52.346;14.516;2022-08-19T05:16:11;364.52;;;218.88;;
8650;SDS011;4363;52.346;14.516;2022-08-19T05:18:37;341.58;;;204.40;;
8650;SDS011;4363;52.346;14.516;2022-08-19T05:21:22;373.25;;;218.93;;
8650;SDS011;4363;52.346;14.516;2022-08-19T05:24:07;352.48;;;210.07;;
8650;SDS011;4363;52.346;14.516;2022-08-19T05:26:34;366.38;;;217.82;;
8650;SDS011;4363;52.346;14.516;2022-08-19T05:29:00;361.00;;;218.82;;
8650;SDS011;4363;52.346;14.516;2022-08-19T05:31:26;338.67;;;203.82;;
8650;SDS011;4363;52.346;14.516;2022-08-19T05:33:52;366.15;;;220.48;;
8650;SDS011;4363;52.346;14.516;2022-08-19T05:36:17;358.60;;;209.80;;
8650;SDS011;4363;52.346;14.516;2022-08-19T05:38:44;357.13;;;211.90;;
8650;SDS011;4363;52.346;14.516;2022-08-19T05:41:12;352.48;;;208.48;;
8650;SDS011;4363;52.346;14.516;2022-08-19T05:43:38;363.10;;;214.18;;
8650;SDS011;4363;52.346;14.516;2022-08-19T05:46:05;339.85;;;199.85;;
8650;SDS011;4363;52.346;14.516;2022-08-19T05:48:32;365.30;;;216.90;;
8650;SDS011;4363;52.346;14.516;2022-08-19T05:50:58;374.88;;;220.93;;
8650;SDS011;4363;52.346;14.516;2022-08-19T05:53:24;363.83;;;227.63;;
8650;SDS011;4363;52.346;14.516;2022-08-19T05:55:50;337.00;;;206.60;;
8650;SDS011;4363;52.346;14.516;2022-08-19T05:58:16;371.85;;;229.73;;
8650;SDS011;4363;52.346;14.516;2022-08-19T06:00:42;379.73;;;239.70;;
8650;SDS011;4363;52.346;14.516;2022-08-19T06:03:09;366.77;;;218.77;;
8650;SDS011;4363;52.346;14.516;2022-08-19T06:05:35;360.85;;;214.57;;
8650;SDS011;4363;52.346;14.516;2022-08-19T06:08:01;380.73;;;227.52;;
8650;SDS011;4363;52.346;14.516;2022-08-19T06:10:27;384.73;;;234.27;;
8650;SDS011;4363;52.346;14.516;2022-08-19T06:12:54;392.08;;;240.77;;
8650;SDS011;4363;52.346;14.516;2022-08-19T06:15:21;417.20;;;262.23;;
8650;SDS011;4363;52.346;14.516;2022-08-19T06:17:50;381.52;;;242.27;;
8650;SDS011;4363;52.346;14.516;2022-08-19T06:20:16;382.00;;;236.05;;
8650;SDS011;4363;52.346;14.516;2022-08-19T06:22:44;368.60;;;224.70;;
8650;SDS011;4363;52.346;14.516;2022-08-19T06:25:11;373.02;;;229.23;;
8650;SDS011;4363;52.346;14.516;2022-08-19T06:27:37;365.25;;;222.57;;
8650;SDS011;4363;52.346;14.516;2022-08-19T06:30:04;386.83;;;232.15;;
8650;SDS011;4363;52.346;14.516;2022-08-19T06:32:30;376.85;;;228.65;;
8650;SDS011;4363;52.346;14.516;2022-08-19T06:34:56;366.08;;;218.07;;
8650;SDS011;4363;52.346;14.516;2022-08-19T06:37:22;381.20;;;235.75;;
8650;SDS011;4363;52.346;14.516;2022-08-19T06:39:48;397.05;;;240.30;;
8650;SDS011;4363;52.346;14.516;2022-08-19T06:42:14;368.27;;;224.43;;
8650;SDS011;4363;52.346;14.516;2022-08-19T06:44:43;389.00;;;236.23;;
8650;SDS011;4363;52.346;14.516;2022-08-19T06:47:11;426.15;;;264.15;;
8650;SDS011;4363;52.346;14.516;2022-08-19T06:49:37;461.63;;;282.23;;
8650;SDS011;4363;52.346;14.516;2022-08-19T06:52:03;440.80;;;262.60;;
8650;SDS011;4363;52.346;14.516;2022-08-19T06:54:30;527.10;;;315.25;;
8650;SDS011;4363;52.346;14.516;2022-08-19T06:56:56;419.45;;;249.23;;
8650;SDS011;4363;52.346;14.516;2022-08-19T06:59:23;439.30;;;268.80;;
8650;SDS011;4363;52.346;14.516;2022-08-19T07:01:54;403.75;;;252.27;;
8650;SDS011;4363;52.346;14.516;2022-08-19T07:04:21;498.92;;;296.63;;
8650;SDS011;4363;52.346;14.516;2022-08-19T07:06:48;406.20;;;247.02;;
8650;SDS011;4363;52.346;14.516;2022-08-19T07:09:15;428.13;;;257.23;;
8650;SDS011;4363;52.346;14.516;2022-08-19T07:11:45;445.88;;;259.42;;
8650;SDS011;4363;52.346;14.516;2022-08-19T07:14:12;487.05;;;274.98;;
8650;SDS011;4363;52.346;14.516;2022-08-19T07:16:39;640.63;;;341.63;;
8650;SDS011;4363;52.346;14.516;2022-08-19T07:19:05;457.70;;;270.13;;
8650;SDS011;4363;52.346;14.516;2022-08-19T07:21:31;422.25;;;265.65;;
8650;SDS011;4363;52.346;14.516;2022-08-19T07:23:58;425.48;;;274.60;;
8650;SDS011;4363;52.346;14.516;2022-08-19T07:26:26;431.50;;;273.13;;
8650;SDS011;4363;52.346;14.516;2022-08-19T07:28:53;453.83;;;281.33;;
8650;SDS011;4363;52.346;14.516;2022-08-19T07:31:20;442.98;;;277.60;;
8650;SDS011;4363;52.346;14.516;2022-08-19T07:33:48;462.63;;;279.50;;
8650;SDS011;4363;52.346;14.516;2022-08-19T07:36:15;508.85;;;318.02;;
8650;SDS011;4363;52.346;14.516;2022-08-19T07:38:42;417.40;;;244.68;;
8650;SDS011;4363;52.346;14.516;2022-08-19T07:41:09;417.17;;;253.65;;
8650;SDS011;4363;52.346;14.516;2022-08-19T07:43:36;381.13;;;245.50;;
8650;SDS011;4363;52.346;14.516;2022-08-19T07:46:02;395.05;;;255.60;;
8650;SDS011;4363;52.346;14.516;2022-08-19T07:48:28;409.88;;;269.15;;
8650;SDS011;4363;52.346;14.516;2022-08-19T07:50:54;406.25;;;266.67;;
8650;SDS011;4363;52.346;14.516;2022-08-19T07:53:22;379.58;;;244.32;;
8650;SDS011;4363;52.346;14.516;2022-08-19T07:55:47;400.13;;;259.80;;
8650;SDS011;4363;52.346;14.516;2022-08-19T07:58:15;396.83;;;263.67;;
8650;SDS011;4363;52.346;14.516;2022-08-19T08:00:42;367.98;;;245.98;;
8650;SDS011;4363;52.346;14.516;2022-08-19T08:03:09;390.75;;;266.90;;
8650;SDS011;4363;52.346;14.516;2022-08-19T08:05:35;386.38;;;261.77;;
8650;SDS011;4363;52.346;14.516;2022-08-19T08:08:19;402.50;;;258.40;;
8650;SDS011;4363;52.346;14.516;2022-08-19T08:11:04;367.60;;;241.73;;
8650;SDS011;4363;52.346;14.516;2022-08-19T08:13:30;373.38;;;246.30;;
8650;SDS011;4363;52.346;14.516;2022-08-19T08:16:00;411.15;;;271.42;;
8650;SDS011;4363;52.346;14.516;2022-08-19T08:18:26;385.02;;;257.13;;
8650;SDS011;4363;52.346;14.516;2022-08-19T08:20:52;399.83;;;265.83;;
8650;SDS011;4363;52.346;14.516;2022-08-19T08:23:18;421.88;;;269.33;;
8650;SDS011;4363;52.346;14.516;2022-08-19T08:25:47;403.52;;;254.45;;
8650;SDS011;4363;52.346;14.516;2022-08-19T08:28:14;410.70;;;253.30;;
8650;SDS011;4363;52.346;14.516;2022-08-19T08:30:40;475.88;;;280.92;;
8650;SDS011;4363;52.346;14.516;2022-08-19T08:33:08;398.90;;;245.60;;
8650;SDS011;4363;52.346;14.516;2022-08-19T08:35:34;413.00;;;251.60;;
8650;SDS011;4363;52.346;14.516;2022-08-19T08:38:00;392.05;;;240.00;;
8650;SDS011;4363;52.346;14.516;2022-08-19T08:40:30;394.00;;;241.23;;
8650;SDS011;4363;52.346;14.516;2022-08-19T08:45:27;416.13;;;261.13;;
8650;SDS011;4363;52.346;14.516;2022-08-19T08:47:54;405.40;;;250.50;;
8650;SDS011;4363;52.346;14.516;2022-08-19T08:50:27;403.27;;;254.00;;
8650;SDS011;4363;52.346;14.516;2022-08-19T08:52:55;392.38;;;252.93;;
8650;SDS011;4363;52.346;14.516;2022-08-19T08:55:26;432.08;;;269.50;;
8650;SDS011;4363;52.346;14.516;2022-08-19T09:00:42;408.17;;;256.63;;
8650;SDS011;4363;52.346;14.516;2022-08-19T09:03:15;428.98;;;273.48;;
8650;SDS011;4363;52.346;14.516;2022-08-19T09:05:45;455.63;;;296.08;;
8650;SDS011;4363;52.346;14.516;2022-08-19T09:08:27;439.92;;;276.30;;
8650;SDS011;4363;52.346;14.516;2022-08-19T09:10:58;437.73;;;287.45;;
8650;SDS011;4363;52.346;14.516;2022-08-19T09:13:28;409.35;;;282.33;;
8650;SDS011;4363;52.346;14.516;2022-08-19T09:15:57;411.88;;;274.30;;
8650;SDS011;4363;52.346;14.516;2022-08-19T09:18:32;413.23;;;272.63;;
8650;SDS011;4363;52.346;14.516;2022-08-19T09:21:03;398.75;;;264.40;;
8650;SDS011;4363;52.346;14.516;2022-08-19T09:23:29;407.65;;;276.67;;
8650;SDS011;4363;52.346;14.516;2022-08-19T09:25:55;407.70;;;284.73;;
8650;SDS011;4363;52.346;14.516;2022-08-19T09:28:21;404.98;;;277.85;;
8650;SDS011;4363;52.346;14.516;2022-08-19T09:30:47;411.58;;;282.63;;
8650;SDS011;4363;52.346;14.516;2022-08-19T09:33:13;417.05;;;295.23;;
8650;SDS011;4363;52.346;14.516;2022-08-19T09:35:40;402.75;;;291.25;;
8650;SDS011;4363;52.346;14.516;2022-08-19T09:38:06;416.10;;;277.25;;
8650;SDS011;4363;52.346;14.516;2022-08-19T09:40:32;432.15;;;287.55;;
8650;SDS011;4363;52.346;14.516;2022-08-19T09:42:58;415.25;;;277.48;;
8650;SDS011;4363;52.346;14.516;2022-08-19T09:45:27;381.92;;;265.85;;
8650;SDS011;4363;52.346;14.516;2022-08-19T09:47:54;408.27;;;277.30;;
8650;SDS011;4363;52.346;14.516;2022-08-19T09:50:20;404.98;;;274.30;;
8650;SDS011;4363;52.346;14.516;2022-08-19T09:52:47;419.80;;;292.30;;
8650;SDS011;4363;52.346;14.516;2022-08-19T09:55:13;407.63;;;290.33;;
8650;SDS011;4363;52.346;14.516;2022-08-19T09:57:40;415.92;;;296.95;;
8650;SDS011;4363;52.346;14.516;2022-08-19T10:00:07;393.50;;;286.80;;
8650;SDS011;4363;52.346;14.516;2022-08-19T10:02:34;399.10;;;295.88;;
8650;SDS011;4363;52.346;14.516;2022-08-19T10:05:00;396.52;;;298.73;;
8650;SDS011;4363;52.346;14.516;2022-08-19T10:07:45;390.40;;;284.85;;
8650;SDS011;4363;52.346;14.516;2022-08-19T10:10:11;400.50;;;293.27;;
8650;SDS011;4363;52.346;14.516;2022-08-19T10:12:37;417.63;;;305.85;;
8650;SDS011;4363;52.346;14.516;2022-08-19T10:15:04;411.98;;;300.77;;
8650;SDS011;4363;52.346;14.516;2022-08-19T10:17:31;388.02;;;279.95;;
8650;SDS011;4363;52.346;14.516;2022-08-19T10:19:58;387.20;;;271.95;;
8650;SDS011;4363;52.346;14.516;2022-08-19T10:22:24;368.52;;;278.20;;
8650;SDS011;4363;52.346;14.516;2022-08-19T10:24:50;392.42;;;275.42;;
8650;SDS011;4363;52.346;14.516;2022-08-19T10:27:17;387.52;;;285.23;;
8650;SDS011;4363;52.346;14.516;2022-08-19T10:29:43;379.60;;;280.63;;
8650;SDS011;4363;52.346;14.516;2022-08-19T10:32:09;397.02;;;289.48;;
8650;SDS011;4363;52.346;14.516;2022-08-19T10:34:36;408.83;;;292.98;;
8650;SDS011;4363;52.346;14.516;2022-08-19T10:37:03;405.98;;;285.30;;
8650;SDS011;4363;52.346;14.516;2022-08-19T10:39:31;397.83;;;274.05;;
8650;SDS011;4363;52.346;14.516;2022-08-19T10:41:57;363.70;;;259.00;;
8650;SDS011;4363;52.346;14.516;2022-08-19T10:44:23;400.17;;;278.38;;
8650;SDS011;4363;52.346;14.516;2022-08-19T10:46:49;402.70;;;288.58;;
8650;SDS011;4363;52.346;14.516;2022-08-19T10:49:16;378.70;;;280.90;;
8650;SDS011;4363;52.346;14.516;2022-08-19T10:51:44;376.23;;;275.85;;
8650;SDS011;4363;52.346;14.516;2022-08-19T10:54:28;390.45;;;283.83;;
8650;SDS011;4363;52.346;14.516;2022-08-19T10:57:14;395.38;;;282.95;;
8650;SDS011;4363;52.346;14.516;2022-08-19T10:59:40;374.35;;;270.50;;
8650;SDS011;4363;52.346;14.516;2022-08-19T11:02:07;386.77;;;274.63;;
8650;SDS011;4363;52.346;14.516;2022-08-19T11:04:34;399.63;;;268.83;;
8650;SDS011;4363;52.346;14.516;2022-08-19T11:07:00;390.30;;;270.38;;
8650;SDS011;4363;52.346;14.516;2022-08-19T11:09:26;382.67;;;261.10;;
8650;SDS011;4363;52.346;14.516;2022-08-19T11:11:53;387.48;;;263.92;;
8650;SDS011;4363;52.346;14.516;2022-08-19T11:14:19;446.15;;;287.15;;
8650;SDS011;4363;52.346;14.516;2022-08-19T11:16:47;402.85;;;266.08;;
8650;SDS011;4363;52.346;14.516;2022-08-19T11:19:13;417.85;;;277.35;;
8650;SDS011;4363;52.346;14.516;2022-08-19T11:21:42;413.17;;;274.13;;
8650;SDS011;4363;52.346;14.516;2022-08-19T11:24:10;401.90;;;274.73;;
8650;SDS011;4363;52.346;14.516;2022-08-19T11:26:37;423.67;;;287.50;;
8650;SDS011;4363;52.346;14.516;2022-08-19T11:29:03;406.20;;;292.67;;
8650;SDS011;4363;52.346;14.516;2022-08-19T11:31:31;391.88;;;285.60;;
8650;SDS011;4363;52.346;14.516;2022-08-19T11:33:59;410.98;;;294.08;;
8650;SDS011;4363;52.346;14.516;2022-08-19T11:36:26;387.00;;;278.55;;
8650;SDS011;4363;52.346;14.516;2022-08-19T11:38:52;428.15;;;290.25;;
8650;SDS011;4363;52.346;14.516;2022-08-19T11:41:19;404.80;;;278.30;;
8650;SDS011;4363;52.346;14.516;2022-08-19T11:43:46;408.23;;;284.58;;
8650;SDS011;4363;52.346;14.516;2022-08-19T11:46:13;407.27;;;277.00;;
8650;SDS011;4363;52.346;14.516;2022-08-19T11:48:39;409.08;;;280.70;;
8650;SDS011;4363;52.346;14.516;2022-08-19T11:51:06;403.38;;;278.60;;
8650;SDS011;4363;52.346;14.516;2022-08-19T11:53:34;386.55;;;274.13;;
8650;SDS011;4363;52.346;14.516;2022-08-19T11:56:00;413.40;;;296.15;;
8650;SDS011;4363;52.346;14.516;2022-08-19T11:58:26;396.60;;;278.27;;
8650;SDS011;4363;52.346;14.516;2022-08-19T12:00:52;403.55;;;289.20;;
8650;SDS011;4363;52.346;14.516;2022-08-19T12:03:18;379.30;;;290.85;;
8650;SDS011;4363;52.346;14.516;2022-08-19T12:05:44;420.58;;;296.92;;
8650;SDS011;4363;52.346;14.516;2022-08-19T12:08:10;414.95;;;303.67;;
8650;SDS011;4363;52.346;14.516;2022-08-19T12:10:38;405.58;;;291.75;;
8650;SDS011;4363;52.346;14.516;2022-08-19T12:13:04;451.13;;;322.67;;
8650;SDS011;4363;52.346;14.516;2022-08-19T12:15:35;479.42;;;336.33;;
8650;SDS011;4363;52.346;14.516;2022-08-19T12:18:01;511.30;;;372.13;;
8650;SDS011;4363;52.346;14.516;2022-08-19T12:20:27;548.15;;;366.13;;
8650;SDS011;4363;52.346;14.516;2022-08-19T12:22:52;481.48;;;336.30;;
8650;SDS011;4363;52.346;14.516;2022-08-19T12:25:19;424.27;;;313.73;;
8650;SDS011;4363;52.346;14.516;2022-08-19T12:27:45;448.83;;;335.67;;
8650;SDS011;4363;52.346;14.516;2022-08-19T12:30:12;497.80;;;351.63;;
8650;SDS011;4363;52.346;14.516;2022-08-19T12:32:38;495.27;;;346.70;;
8650;SDS011;4363;52.346;14.516;2022-08-19T12:35:05;442.50;;;319.50;;
8650;SDS011;4363;52.346;14.516;2022-08-19T12:37:33;475.23;;;331.50;;
8650;SDS011;4363;52.346;14.516;2022-08-19T12:39:59;467.60;;;327.58;;
8650;SDS011;4363;52.346;14.516;2022-08-19T12:42:25;453.67;;;330.33;;
8650;SDS011;4363;52.346;14.516;2022-08-19T12:44:51;454.77;;;334.60;;
8650;SDS011;4363;52.346;14.516;2022-08-19T12:47:17;434.90;;;312.50;;
8650;SDS011;4363;52.346;14.516;2022-08-19T12:49:43;490.20;;;328.48;;
8650;SDS011;4363;52.346;14.516;2022-08-19T12:52:11;411.83;;;300.15;;
8650;SDS011;4363;52.346;14.516;2022-08-19T12:54:40;478.38;;;330.92;;
8650;SDS011;4363;52.346;14.516;2022-08-19T12:57:07;437.10;;;294.33;;
8650;SDS011;4363;52.346;14.516;2022-08-19T12:59:34;530.83;;;336.20;;
8650;SDS011;4363;52.346;14.516;2022-08-19T13:02:01;427.35;;;290.02;;
8650;SDS011;4363;52.346;14.516;2022-08-19T13:04:28;451.63;;;305.10;;
8650;SDS011;4363;52.346;14.516;2022-08-19T13:06:54;488.98;;;332.08;;
8650;SDS011;4363;52.346;14.516;2022-08-19T13:09:20;452.80;;;319.95;;
8650;SDS011;4363;52.346;14.516;2022-08-19T13:11:46;427.27;;;306.30;;
8650;SDS011;4363;52.346;14.516;2022-08-19T13:14:12;468.00;;;329.17;;
8650;SDS011;4363;52.346;14.516;2022-08-19T13:16:38;488.23;;;322.55;;
8650;SDS011;4363;52.346;14.516;2022-08-19T13:19:05;608.78;;;369.65;;
8650;SDS011;4363;52.346;14.516;2022-08-19T13:21:32;466.13;;;300.77;;
8650;SDS011;4363;52.346;14.516;2022-08-19T13:23:58;459.55;;;307.95;;
8650;SDS011;4363;52.346;14.516;2022-08-19T13:26:24;497.30;;;322.02;;
8650;SDS011;4363;52.346;14.516;2022-08-19T13:28:50;596.70;;;368.98;;
8650;SDS011;4363;52.346;14.516;2022-08-19T13:31:35;528.28;;;337.83;;
8650;SDS011;4363;52.346;14.516;2022-08-19T13:34:26;457.42;;;306.70;;
8650;SDS011;4363;52.346;14.516;2022-08-19T13:36:52;449.80;;;305.58;;
8650;SDS011;4363;52.346;14.516;2022-08-19T13:39:18;498.90;;;326.65;;
8650;SDS011;4363;52.346;14.516;2022-08-19T13:41:45;491.60;;;312.73;;
8650;SDS011;4363;52.346;14.516;2022-08-19T13:44:13;413.20;;;292.38;;
8650;SDS011;4363;52.346;14.516;2022-08-19T13:46:39;519.85;;;330.38;;
8650;SDS011;4363;52.346;14.516;2022-08-19T13:49:05;516.60;;;320.45;;
8650;SDS011;4363;52.346;14.516;2022-08-19T13:51:31;471.83;;;301.70;;
8650;SDS011;4363;52.346;14.516;2022-08-19T13:53:57;420.58;;;282.20;;
8650;SDS011;4363;52.346;14.516;2022-08-19T13:56:23;451.00;;;298.13;;
8650;SDS011;4363;52.346;14.516;2022-08-19T13:58:49;446.98;;;280.33;;
8650;SDS011;4363;52.346;14.516;2022-08-19T14:01:18;418.45;;;274.10;;
8650;SDS011;4363;52.346;14.516;2022-08-19T14:03:44;463.77;;;300.48;;
8650;SDS011;4363;52.346;14.516;2022-08-19T14:06:10;458.05;;;306.05;;
8650;SDS011;4363;52.346;14.516;2022-08-19T14:08:36;478.55;;;308.08;;
8650;SDS011;4363;52.346;14.516;2022-08-19T14:11:04;451.70;;;289.77;;
8650;SDS011;4363;52.346;14.516;2022-08-19T14:13:30;407.17;;;275.33;;
8650;SDS011;4363;52.346;14.516;2022-08-19T14:15:58;458.38;;;289.40;;